createdAt,value
2023-05-12T00:02:00.312Z,52.90
2023-05-12T00:04:26.830Z,53.00
2023-05-12T00:06:53.291Z,53.40
2023-05-12T00:09:19.768Z,53.40
2023-05-12T00:11:46.294Z,53.20
2023-05-12T00:14:12.747Z,53.40
2023-05-12T00:16:39.220Z,53.40
2023-05-12T00:19:05.822Z,53.40
2023-05-12T00:21:32.367Z,53.30
2023-05-12T00:23:58.865Z,53.10
2023-05-12T00:26:25.383Z,53.30
2023-05-12T00:28:51.843Z,53.40
2023-05-12T00:31:18.320Z,53.10
2023-05-12T00:33:44.861Z,53.00
2023-05-12T00:36:11.335Z,54.00
2023-05-12T00:38:37.789Z,53.20
2023-05-12T00:41:04.284Z,53.50
2023-05-12T00:43:30.790Z,53.10
2023-05-12T00:45:57.322Z,52.10
2023-05-12T00:48:23.850Z,53.30
2023-05-12T00:50:50.334Z,53.30
2023-05-12T00:53:16.867Z,53.00
2023-05-12T00:55:43.320Z,52.80
2023-05-12T00:58:09.791Z,53.30
2023-05-12T01:00:36.306Z,53.20
2023-05-12T01:03:02.859Z,53.00
2023-05-12T01:05:29.414Z,53.30
2023-05-12T01:07:55.876Z,52.80
2023-05-12T01:10:22.600Z,53.40
2023-05-12T01:12:49.294Z,53.10
2023-05-12T01:15:15.808Z,53.20
2023-05-12T01:17:42.493Z,52.90
2023-05-12T01:20:09.066Z,53.00
2023-05-12T01:22:35.502Z,53.30
2023-05-12T01:25:01.981Z,52.70
2023-05-12T01:27:28.487Z,52.70
2023-05-12T01:29:54.969Z,53.00
2023-05-12T01:32:21.483Z,52.80
2023-05-12T01:34:48.002Z,52.30
2023-05-12T01:37:14.467Z,51.90
2023-05-12T01:39:40.931Z,53.30
2023-05-12T01:42:07.370Z,52.10
2023-05-12T01:44:33.879Z,53.00
2023-05-12T01:47:00.357Z,53.20
2023-05-12T01:49:26.842Z,53.30
2023-05-12T01:51:53.384Z,52.50
2023-05-12T01:54:19.823Z,52.90
2023-05-12T01:56:46.277Z,53.00
2023-05-12T01:59:12.903Z,53.20
2023-05-12T02:01:39.460Z,52.90
2023-05-12T02:04:06.026Z,53.00
2023-05-12T02:06:32.601Z,52.70
2023-05-12T02:08:59.127Z,53.20
2023-05-12T02:11:25.575Z,52.90
2023-05-12T02:13:52.051Z,53.80
2023-05-12T02:16:18.606Z,53.10
2023-05-12T02:18:45.122Z,52.70
2023-05-12T02:21:11.563Z,53.10
2023-05-12T02:23:38.075Z,53.00
2023-05-12T02:26:04.585Z,52.40
2023-05-12T02:28:31.072Z,53.10
2023-05-12T02:30:57.590Z,53.30
2023-05-12T02:33:24.060Z,53.20
2023-05-12T02:35:50.529Z,52.90
2023-05-12T02:38:17.046Z,53.10
2023-05-12T02:40:43.517Z,53.10
2023-05-12T02:43:09.964Z,52.00
2023-05-12T02:48:03.565Z,52.80
2023-05-12T02:50:30.061Z,52.80
2023-05-12T02:52:56.513Z,53.10
2023-05-12T02:55:22.956Z,52.80
2023-05-12T02:57:49.411Z,52.80
2023-05-12T03:00:15.893Z,53.10
2023-05-12T03:02:42.494Z,53.10
2023-05-12T03:05:09.160Z,53.10
2023-05-12T03:10:02.691Z,53.00
2023-05-12T03:12:29.139Z,52.80
2023-05-12T03:14:55.621Z,54.00
2023-05-12T03:17:22.234Z,53.10
2023-05-12T03:19:48.725Z,52.50
2023-05-12T03:22:15.181Z,52.60
2023-05-12T03:24:41.665Z,52.80
2023-05-12T03:27:08.118Z,53.10
2023-05-12T03:29:34.611Z,53.10
2023-05-12T03:32:01.087Z,53.10
2023-05-12T03:34:27.558Z,53.10
2023-05-12T03:36:54.018Z,52.90
2023-05-12T03:39:20.536Z,53.00
2023-05-12T03:41:47.020Z,52.90
2023-05-12T03:44:13.474Z,53.10
2023-05-12T03:46:40.063Z,53.10
2023-05-12T03:49:06.612Z,52.60
2023-05-12T03:51:33.117Z,52.60
2023-05-12T03:53:59.581Z,52.50
2023-05-12T03:56:26.083Z,52.60
2023-05-12T03:58:52.569Z,53.10
2023-05-12T04:01:19.076Z,52.90
2023-05-12T04:03:45.706Z,52.50
2023-05-12T04:08:41.853Z,53.10
2023-05-12T04:11:08.682Z,52.80
2023-05-12T04:13:35.181Z,52.70
2023-05-12T04:16:01.781Z,53.00
2023-05-12T04:18:28.364Z,52.60
2023-05-12T04:20:54.881Z,52.90
2023-05-12T04:23:21.363Z,53.50
2023-05-12T04:25:47.905Z,53.00
2023-05-12T04:30:41.472Z,52.90
2023-05-12T04:33:08.019Z,52.90
2023-05-12T04:35:34.512Z,52.80
2023-05-12T04:38:01.025Z,53.10
2023-05-12T04:40:27.526Z,53.00
2023-05-12T04:42:54.011Z,53.10
2023-05-12T04:45:20.804Z,52.80
2023-05-12T04:47:47.489Z,53.00
2023-05-12T04:50:13.948Z,53.10
2023-05-12T04:52:40.399Z,53.20
2023-05-12T04:55:06.910Z,52.70
2023-05-12T04:57:33.369Z,53.30
2023-05-12T04:59:59.844Z,53.20
2023-05-12T05:02:26.399Z,53.10
2023-05-12T05:04:52.981Z,53.30
2023-05-12T05:07:19.475Z,53.20
2023-05-12T05:09:45.971Z,53.40
2023-05-12T05:12:12.431Z,53.40
2023-05-12T05:14:38.918Z,53.30
2023-05-12T05:17:05.408Z,53.00
2023-05-12T05:19:46.236Z,53.30
2023-05-12T05:22:18.334Z,53.10
2023-05-12T05:24:44.829Z,52.90
2023-05-12T05:27:11.360Z,53.10
2023-05-12T05:29:37.856Z,53.40
2023-05-12T05:32:04.348Z,53.40
2023-05-12T05:34:30.888Z,53.50
2023-05-12T05:36:57.459Z,53.50
2023-05-12T05:39:23.959Z,52.70
2023-05-12T05:41:50.443Z,53.50
2023-05-12T05:44:16.938Z,53.00
2023-05-12T05:46:43.464Z,53.30
2023-05-12T05:49:09.998Z,53.20
2023-05-12T05:51:36.498Z,53.10
2023-05-12T05:54:02.941Z,53.40
2023-05-12T05:56:29.568Z,52.30
2023-05-12T05:58:56.116Z,53.50
2023-05-12T06:01:22.645Z,53.40
2023-05-12T06:03:49.254Z,52.50
2023-05-12T06:06:15.743Z,52.40
2023-05-12T06:08:42.219Z,53.20
2023-05-12T06:11:08.724Z,53.30
2023-05-12T06:13:35.205Z,53.20
2023-05-12T06:16:01.725Z,53.50
2023-05-12T06:18:28.239Z,53.40
2023-05-12T06:20:54.705Z,53.10
2023-05-12T06:23:21.191Z,53.40
2023-05-12T06:25:47.682Z,53.10
2023-05-12T06:28:14.160Z,53.40
2023-05-12T06:30:40.668Z,53.40
2023-05-12T06:33:07.200Z,53.40
2023-05-12T06:35:33.671Z,53.00
2023-05-12T06:38:00.161Z,53.30
2023-05-12T06:40:26.670Z,53.40
2023-05-12T06:42:53.195Z,53.40
2023-05-12T06:45:19.929Z,53.10
2023-05-12T06:47:46.743Z,53.20
2023-05-12T06:50:13.224Z,53.10
2023-05-12T06:52:39.717Z,53.10
2023-05-12T06:55:06.177Z,52.90
2023-05-12T06:57:32.682Z,53.20
2023-05-12T06:59:59.157Z,53.40
2023-05-12T07:04:52.664Z,53.20
2023-05-12T07:07:19.160Z,53.40
2023-05-12T07:09:45.668Z,53.00
2023-05-12T07:12:12.137Z,52.50
2023-05-12T07:14:38.586Z,52.90
2023-05-12T07:17:05.150Z,52.30
2023-05-12T07:19:31.693Z,53.40
2023-05-12T07:21:58.118Z,53.50
2023-05-12T07:24:24.631Z,53.20
2023-05-12T07:26:51.126Z,53.30
2023-05-12T07:29:17.620Z,53.50
2023-05-12T07:31:44.110Z,53.50
2023-05-12T07:34:10.603Z,53.20
2023-05-12T07:36:37.107Z,53.10
2023-05-12T07:39:03.550Z,53.40
2023-05-12T07:41:30.224Z,52.00
2023-05-12T07:43:57.525Z,53.40
2023-05-12T07:46:24.046Z,53.00
2023-05-12T07:48:50.597Z,53.40
2023-05-12T07:51:17.085Z,52.80
2023-05-12T07:53:43.622Z,53.20
2023-05-12T07:56:10.112Z,53.20
2023-05-12T07:58:36.591Z,53.30
2023-05-12T08:01:03.076Z,53.30
2023-05-12T08:03:29.614Z,52.80
2023-05-12T08:05:56.191Z,52.80
2023-05-12T08:08:22.631Z,53.00
2023-05-12T08:10:49.103Z,53.40
2023-05-12T08:13:15.584Z,52.80
2023-05-12T08:15:42.048Z,52.90
2023-05-12T08:18:08.637Z,52.70
2023-05-12T08:20:35.156Z,53.30
2023-05-12T08:23:01.639Z,53.10
2023-05-12T08:25:28.136Z,52.90
2023-05-12T08:27:54.625Z,52.70
2023-05-12T08:30:21.071Z,52.90
2023-05-12T08:32:47.636Z,53.20
2023-05-12T08:35:14.227Z,52.70
2023-05-12T08:37:40.812Z,53.30
2023-05-12T08:40:07.300Z,53.20
2023-05-12T08:42:33.815Z,52.70
2023-05-12T08:45:00.347Z,52.90
2023-05-12T08:47:26.892Z,53.20
2023-05-12T08:49:53.584Z,53.20
2023-05-12T08:52:20.073Z,53.00
2023-05-12T08:54:55.539Z,52.70
2023-05-12T08:57:22.692Z,53.80
2023-05-12T08:59:49.157Z,53.20
2023-05-12T09:02:15.670Z,53.00
2023-05-12T09:04:42.241Z,52.60
2023-05-12T09:07:08.781Z,53.20
2023-05-12T09:09:35.226Z,53.20
2023-05-12T09:12:01.685Z,53.10
2023-05-12T09:14:28.173Z,52.70
2023-05-12T09:16:54.692Z,52.80
2023-05-12T09:19:21.165Z,52.50
2023-05-12T09:21:47.675Z,52.90
2023-05-12T09:24:14.179Z,52.70
2023-05-12T09:26:40.689Z,53.30
2023-05-12T09:29:07.248Z,52.90
2023-05-12T09:31:36.126Z,53.30
2023-05-12T09:34:02.663Z,50.30
2023-05-12T09:36:29.215Z,52.70
2023-05-12T09:38:55.660Z,53.30
2023-05-12T09:41:22.148Z,52.90
2023-05-12T09:43:48.688Z,53.10
2023-05-12T09:46:15.212Z,53.20
2023-05-12T09:48:41.691Z,52.30
2023-05-12T09:51:08.152Z,52.20
2023-05-12T09:53:34.632Z,52.70
2023-05-12T09:56:01.115Z,53.00
2023-05-12T09:58:27.667Z,53.00
2023-05-12T10:03:23.550Z,52.60
2023-05-12T10:05:50.039Z,52.70
2023-05-12T10:08:16.487Z,53.70
2023-05-12T10:10:42.952Z,53.80
2023-05-12T10:13:09.451Z,53.80
2023-05-12T10:15:35.937Z,54.10
2023-05-12T10:18:02.500Z,53.40
2023-05-12T10:20:29.065Z,53.50
2023-05-12T10:22:55.512Z,53.20
2023-05-12T10:25:22.223Z,53.70
2023-05-12T10:27:48.823Z,53.60
2023-05-12T10:30:15.329Z,53.50
2023-05-12T10:32:41.835Z,53.00
2023-05-12T10:35:08.356Z,53.20
2023-05-12T10:37:34.870Z,53.50
2023-05-12T10:40:01.373Z,53.00
2023-05-12T10:42:27.859Z,53.40
2023-05-12T10:44:54.366Z,53.20
2023-05-12T10:47:20.848Z,53.40
2023-05-12T10:49:47.312Z,53.30
2023-05-12T10:54:40.822Z,53.00
2023-05-12T10:57:07.405Z,53.20
2023-05-12T10:59:34.380Z,53.30
2023-05-12T11:02:02.070Z,53.10
2023-05-12T11:04:30.080Z,52.50
2023-05-12T11:06:57.444Z,52.70
2023-05-12T11:09:24.956Z,53.20
2023-05-12T11:11:52.285Z,53.30
2023-05-12T11:14:18.837Z,53.10
2023-05-12T11:16:45.402Z,53.20
2023-05-12T11:19:12.027Z,53.10
2023-05-12T11:21:38.588Z,52.80
2023-05-12T11:24:05.062Z,53.20
2023-05-12T11:26:31.548Z,53.10
2023-05-12T11:28:57.991Z,52.60
2023-05-12T11:31:24.441Z,53.20
2023-05-12T11:34:01.286Z,52.90
2023-05-12T11:36:34.926Z,52.40
2023-05-12T11:39:01.390Z,53.20
2023-05-12T11:41:27.881Z,52.20
2023-05-12T11:43:54.390Z,53.10
2023-05-12T11:46:20.929Z,52.60
2023-05-12T11:48:47.421Z,52.40
2023-05-12T11:51:13.926Z,53.10
2023-05-12T11:53:40.399Z,52.70
2023-05-12T11:56:06.883Z,53.10
2023-05-12T11:58:34.521Z,53.10
2023-05-12T12:01:02.073Z,52.50
2023-05-12T12:03:28.650Z,53.00
2023-05-12T12:05:55.180Z,53.00
2023-05-12T12:08:21.669Z,53.00
2023-05-12T12:10:48.170Z,53.20
2023-05-12T12:13:14.829Z,53.20
2023-05-12T12:15:41.350Z,53.50
2023-05-12T12:18:07.921Z,53.50
2023-05-12T12:20:34.472Z,53.90
2023-05-12T12:23:00.932Z,53.10
2023-05-12T12:25:27.423Z,53.90
2023-05-12T12:27:53.905Z,53.90
2023-05-12T12:30:20.419Z,53.90
2023-05-12T12:32:47.003Z,53.40
2023-05-12T12:35:13.510Z,53.40
2023-05-12T12:37:39.956Z,53.50
2023-05-12T12:42:33.477Z,53.50
2023-05-12T12:44:59.914Z,53.40
2023-05-12T12:47:26.398Z,53.60
2023-05-12T12:49:52.881Z,53.80
2023-05-12T12:52:19.407Z,54.10
2023-05-12T12:54:45.882Z,53.60
2023-05-12T12:57:12.362Z,54.10
2023-05-12T12:59:38.826Z,54.10
2023-05-12T13:02:05.345Z,54.10
2023-05-12T13:04:31.891Z,53.40
2023-05-12T13:06:58.410Z,54.10
2023-05-12T13:09:24.882Z,54.10
2023-05-12T13:11:51.335Z,53.60
2023-05-12T13:14:17.811Z,53.80
2023-05-12T13:16:44.280Z,54.00
2023-05-12T13:19:11.028Z,53.90
2023-05-12T13:21:37.691Z,53.30
2023-05-12T13:24:04.230Z,53.50
2023-05-12T13:26:30.802Z,53.40
2023-05-12T13:28:57.356Z,54.00
2023-05-12T13:31:23.925Z,53.10
2023-05-12T13:33:50.394Z,53.80
2023-05-12T13:36:16.889Z,53.80
2023-05-12T13:38:43.431Z,53.80
2023-05-12T13:41:09.893Z,53.50
2023-05-12T13:43:36.386Z,53.80
2023-05-12T13:46:03.127Z,53.60
2023-05-12T13:48:29.680Z,54.00
2023-05-12T13:50:56.175Z,54.00
2023-05-12T13:53:22.636Z,53.30
2023-05-12T13:55:49.117Z,53.00
2023-05-12T13:58:15.594Z,53.90
2023-05-12T14:00:42.056Z,53.80
2023-05-12T14:03:08.635Z,53.90
2023-05-12T14:05:35.284Z,53.50
2023-05-12T14:08:01.859Z,53.90
2023-05-12T14:10:28.352Z,53.90
2023-05-12T14:12:54.816Z,54.00
2023-05-12T14:15:32.415Z,53.30
2023-05-12T14:18:02.942Z,53.90
2023-05-12T14:20:29.480Z,53.90
2023-05-12T14:22:55.958Z,53.30
2023-05-12T14:25:22.716Z,53.70
2023-05-12T14:27:49.450Z,53.40
2023-05-12T14:30:15.980Z,53.50
2023-05-12T14:32:42.534Z,53.60
2023-05-12T14:35:09.115Z,53.40
2023-05-12T14:37:35.674Z,53.50
2023-05-12T14:40:02.151Z,54.10
2023-05-12T14:42:28.615Z,53.50
2023-05-12T14:44:55.108Z,53.60
2023-05-12T14:47:21.558Z,54.00
2023-05-12T14:52:15.005Z,53.80
2023-05-12T14:54:41.516Z,53.60
2023-05-12T14:57:07.981Z,53.60
2023-05-12T14:59:34.489Z,53.80
2023-05-12T15:02:00.968Z,54.10
2023-05-12T15:04:27.448Z,54.10
2023-05-12T15:06:53.938Z,53.60
2023-05-12T15:09:20.396Z,53.60
2023-05-12T15:11:46.899Z,53.60
2023-05-12T15:14:13.422Z,53.50
2023-05-12T15:16:39.889Z,54.20
2023-05-12T15:19:06.424Z,53.30
2023-05-12T15:21:34.643Z,53.70
2023-05-12T15:24:01.278Z,53.80
2023-05-12T15:26:33.611Z,53.80
2023-05-12T15:29:01.129Z,53.70
2023-05-12T15:31:27.640Z,53.40
2023-05-12T15:33:54.165Z,54.30
2023-05-12T15:36:20.703Z,53.90
2023-05-12T15:38:47.206Z,54.20
2023-05-12T15:41:13.669Z,53.90
2023-05-12T15:43:40.162Z,54.00
2023-05-12T15:46:06.682Z,53.60
2023-05-12T15:48:33.185Z,53.50
2023-05-12T15:50:59.668Z,53.50
2023-05-12T15:53:26.154Z,53.80
2023-05-12T15:55:52.639Z,53.60
2023-05-12T15:58:19.163Z,54.10
2023-05-12T16:00:45.699Z,54.00
2023-05-12T16:03:12.317Z,53.90
2023-05-12T16:05:38.882Z,53.50
2023-05-12T16:08:05.354Z,53.50
2023-05-12T16:10:31.837Z,53.90
2023-05-12T16:12:58.336Z,53.40
2023-05-12T16:15:24.784Z,54.00
2023-05-12T16:17:51.331Z,53.90
2023-05-12T16:20:17.829Z,53.80
2023-05-12T16:22:44.287Z,54.00
2023-05-12T16:25:10.772Z,53.40
2023-05-12T16:27:37.284Z,53.90
2023-05-12T16:30:03.771Z,54.00
2023-05-12T16:32:30.295Z,53.60
2023-05-12T16:34:56.840Z,53.90
2023-05-12T16:37:23.450Z,53.30
2023-05-12T16:39:49.934Z,53.30
2023-05-12T16:42:16.421Z,53.80
2023-05-12T16:47:09.972Z,53.30
2023-05-12T16:49:36.428Z,53.30
2023-05-12T16:52:02.901Z,53.80
2023-05-12T16:54:29.396Z,53.20
2023-05-12T16:59:22.903Z,53.60
2023-05-12T17:01:49.420Z,53.30
2023-05-12T17:04:15.885Z,53.70
2023-05-12T17:06:42.451Z,53.60
2023-05-12T17:09:08.898Z,53.50
2023-05-12T17:11:35.337Z,53.70
2023-05-12T17:14:01.817Z,53.60
2023-05-12T17:16:28.424Z,53.30
2023-05-12T17:21:24.375Z,53.10
2023-05-12T17:23:50.824Z,53.50
2023-05-12T17:26:17.311Z,53.50
2023-05-12T17:28:43.786Z,53.30
2023-05-12T17:31:10.270Z,53.40
2023-05-12T17:33:36.805Z,53.20
2023-05-12T17:36:11.327Z,52.80
2023-05-12T17:38:39.147Z,52.90
2023-05-12T17:41:05.617Z,53.40
2023-05-12T17:43:32.101Z,53.00
2023-05-12T17:45:58.606Z,53.30
2023-05-12T17:48:25.106Z,53.30
2023-05-12T17:50:51.601Z,53.10
2023-05-12T17:53:18.095Z,53.30
2023-05-12T17:55:44.586Z,53.00
2023-05-12T17:58:11.024Z,53.70
2023-05-12T18:00:37.665Z,53.90
2023-05-12T18:03:04.360Z,53.80
2023-05-12T18:05:30.973Z,54.10
2023-05-12T18:07:57.435Z,53.80
2023-05-12T18:10:23.938Z,54.00
2023-05-12T18:12:50.606Z,53.40
2023-05-12T18:15:17.723Z,54.00
2023-05-12T18:17:44.376Z,53.60
2023-05-12T18:20:10.976Z,53.90
2023-05-12T18:22:37.511Z,54.10
2023-05-12T18:25:04.041Z,53.90
2023-05-12T18:27:30.535Z,54.10
2023-05-12T18:29:56.996Z,54.00
2023-05-12T18:32:24.422Z,54.00
2023-05-12T18:34:52.651Z,53.90
2023-05-12T18:37:19.400Z,54.50
2023-05-12T18:39:45.848Z,54.10
2023-05-12T18:42:12.359Z,54.40
2023-05-12T18:44:38.848Z,54.40
2023-05-12T18:47:05.332Z,53.90
2023-05-12T18:49:31.886Z,53.80
2023-05-12T18:51:58.327Z,54.10
2023-05-12T18:54:24.853Z,53.90
2023-05-12T18:56:51.302Z,54.50
2023-05-12T18:59:17.813Z,53.90
2023-05-12T19:01:44.322Z,53.90
2023-05-12T19:04:10.805Z,53.70
2023-05-12T19:06:37.254Z,54.30
2023-05-12T19:09:03.733Z,55.00
2023-05-12T19:11:30.204Z,54.40
2023-05-12T19:13:56.733Z,53.80
2023-05-12T19:16:23.247Z,53.70
2023-05-12T19:18:49.804Z,54.10
2023-05-12T19:21:16.333Z,53.80
2023-05-12T19:23:43.012Z,53.30
2023-05-12T19:28:38.357Z,53.80
2023-05-12T19:31:04.814Z,54.00
2023-05-12T19:33:31.294Z,53.70
2023-05-12T19:35:57.769Z,53.90
2023-05-12T19:38:24.318Z,53.80
2023-05-12T19:40:50.853Z,53.20
2023-05-12T19:43:17.400Z,53.60
2023-05-12T19:45:43.860Z,53.50
2023-05-12T19:48:10.360Z,53.50
2023-05-12T19:50:36.869Z,53.50
2023-05-12T19:53:03.362Z,53.30
2023-05-12T19:55:29.849Z,53.50
2023-05-12T19:57:56.291Z,53.60
2023-05-12T20:00:22.776Z,53.30
2023-05-12T20:02:49.300Z,54.00
2023-05-12T20:05:15.849Z,53.40
2023-05-12T20:07:42.304Z,54.00
2023-05-12T20:10:08.818Z,53.40
2023-05-12T20:12:35.346Z,53.50
2023-05-12T20:15:01.836Z,53.40
2023-05-12T20:17:28.352Z,53.20
2023-05-12T20:19:54.932Z,54.00
2023-05-12T20:22:21.440Z,53.70
2023-05-12T20:24:47.965Z,53.70
2023-05-12T20:27:14.514Z,53.70
2023-05-12T20:29:41.029Z,53.70
2023-05-12T20:32:07.484Z,53.50
2023-05-12T20:34:33.968Z,53.70
2023-05-12T20:37:00.483Z,53.90
2023-05-12T20:39:26.981Z,54.00
2023-05-12T20:41:53.486Z,54.00
2023-05-12T20:44:19.958Z,53.10
2023-05-12T20:46:46.479Z,53.40
2023-05-12T20:49:13.026Z,53.40
2023-05-12T20:51:39.475Z,53.40
2023-05-12T20:54:05.955Z,53.30
2023-05-12T20:56:32.419Z,53.20
2023-05-12T20:58:58.932Z,53.30
2023-05-12T21:01:25.492Z,53.00
2023-05-12T21:03:51.980Z,53.30
2023-05-12T21:06:18.503Z,53.80
2023-05-12T21:08:45.013Z,54.00
2023-05-12T21:11:11.520Z,53.50
2023-05-12T21:13:38.019Z,53.70
2023-05-12T21:16:04.540Z,53.40
2023-05-12T21:20:58.009Z,53.60
2023-05-12T21:23:24.481Z,53.10
2023-05-12T21:25:51.023Z,53.20
2023-05-12T21:28:17.522Z,53.40
2023-05-12T21:30:43.995Z,53.00
2023-05-12T21:33:10.518Z,53.30
2023-05-12T21:35:37.117Z,53.00
2023-05-12T21:38:03.577Z,53.10
2023-05-12T21:40:30.093Z,52.70
2023-05-12T21:42:56.669Z,53.40
2023-05-12T21:45:23.155Z,53.00
2023-05-12T21:47:49.724Z,53.70
2023-05-12T21:50:16.310Z,53.60
2023-05-12T21:52:42.803Z,53.20
2023-05-12T21:55:09.311Z,53.00
2023-05-12T21:57:35.793Z,52.50
2023-05-12T22:00:02.368Z,53.10
2023-05-12T22:02:28.979Z,53.40
2023-05-12T22:04:55.494Z,53.40
2023-05-12T22:07:21.942Z,53.40
2023-05-12T22:09:48.419Z,52.80
2023-05-12T22:12:14.865Z,53.40
2023-05-12T22:14:41.355Z,52.70
2023-05-12T22:17:07.938Z,53.40
2023-05-12T22:19:34.370Z,52.70
2023-05-12T22:22:00.806Z,53.30
2023-05-12T22:24:27.296Z,53.30
2023-05-12T22:26:53.785Z,52.60
2023-05-12T22:29:20.295Z,53.20
2023-05-12T22:31:46.854Z,52.80
2023-05-12T22:34:13.477Z,52.70
2023-05-12T22:36:39.965Z,53.30
2023-05-12T22:39:06.429Z,53.20
2023-05-12T22:41:32.886Z,53.20
2023-05-12T22:43:59.378Z,52.70
2023-05-12T22:46:25.906Z,53.10
2023-05-12T22:48:52.410Z,53.10
2023-05-12T22:51:18.856Z,52.70
2023-05-12T22:53:45.327Z,52.60
2023-05-12T22:56:11.826Z,52.60
2023-05-12T22:58:38.527Z,52.40
2023-05-12T23:01:05.156Z,52.50
2023-05-12T23:03:31.736Z,52.40
2023-05-12T23:05:58.264Z,52.50
2023-05-12T23:08:24.783Z,52.20
2023-05-12T23:10:51.303Z,52.50
2023-05-12T23:13:17.795Z,53.00
2023-05-12T23:15:44.277Z,52.50
2023-05-12T23:18:10.778Z,52.90
2023-05-12T23:20:37.344Z,52.60
2023-05-12T23:23:03.885Z,52.40
2023-05-12T23:25:30.350Z,52.90
2023-05-12T23:27:56.852Z,52.50
2023-05-12T23:30:23.439Z,52.40
2023-05-12T23:32:50.057Z,52.90
2023-05-12T23:35:16.622Z,52.20
2023-05-12T23:37:43.155Z,52.40
2023-05-12T23:40:09.676Z,52.40
2023-05-12T23:42:36.212Z,52.90
2023-05-12T23:45:02.708Z,52.30
2023-05-12T23:47:29.224Z,52.50
2023-05-12T23:49:55.742Z,52.90
2023-05-12T23:52:22.229Z,52.80
2023-05-12T23:54:48.749Z,52.30
2023-05-12T23:57:15.202Z,52.40
2023-05-12T23:59:41.650Z,52.00
